Time;durP1;ratioP1;P1;durP2;ratioP2;P2;SDS_P1;SDS_P2;PMS_P1;PMS_P2;Temp;Humidity;BMP_temperature;BMP_pressure;BME280_temperature;BME280_humidity;BME280_pressure;Samples;Min_cycle;Max_cycle;Signal;HPM_P1;HPM_P2
2021/12/24 00:00:56;;;;;;;13.87;9.10;;;4.10;99.90;;;;;;5052612;28;22559;-40
2021/12/24 00:03:23;;;;;;;18.13;9.50;;;4.10;99.90;;;;;;5067636;28;20257;-40
2021/12/24 00:05:50;;;;;;;12.70;9.10;;;4.10;99.90;;;;;;5042073;28;20230;-40
2021/12/24 00:08:17;;;;;;;12.97;8.93;;;4.10;99.90;;;;;;5075327;28;20200;-40
2021/12/24 00:10:48;;;;;;;15.10;8.20;;;4.10;99.90;;;;;;5058776;28;20204;-40
2021/12/24 00:13:16;;;;;;;15.37;9.37;;;4.10;99.90;;;;;;5066844;28;20202;-40
2021/12/24 00:16:01;;;;;;;14.23;9.07;;;4.20;99.90;;;;;;5065704;28;20228;-40
2021/12/24 00:18:38;;;;;;;14.17;8.97;;;4.20;99.90;;;;;;5073781;28;20227;-40
2021/12/24 00:35:12;;;;;;;12.83;7.70;;;4.10;99.90;;;;;;5067918;28;20921;-46
2021/12/24 00:37:42;;;;;;;12.27;7.30;;;4.20;99.90;;;;;;5067548;28;20218;-46
2021/12/24 00:40:15;;;;;;;11.53;8.27;;;4.20;99.90;;;;;;5065219;28;21193;-46
2021/12/24 00:42:45;;;;;;;11.37;7.87;;;4.20;99.90;;;;;;5061192;28;20273;-45
2021/12/24 00:45:13;;;;;;;13.33;8.30;;;4.30;99.90;;;;;;5067431;28;21491;-45
2021/12/24 00:47:40;;;;;;;10.73;7.73;;;4.30;99.90;;;;;;5069020;28;21113;-46
2021/12/24 00:50:13;;;;;;;11.77;8.47;;;4.20;99.90;;;;;;5077145;28;20200;-46
2021/12/24 00:52:53;;;;;;;13.13;7.80;;;4.30;99.90;;;;;;5053889;28;20220;-46
2021/12/24 00:55:22;;;;;;;13.53;8.17;;;4.30;99.90;;;;;;5078713;28;20216;-46
2021/12/24 00:57:51;;;;;;;12.80;8.47;;;4.30;99.90;;;;;;5060185;28;20258;-45
2021/12/24 01:00:21;;;;;;;12.67;8.57;;;4.30;99.90;;;;;;5055037;28;20206;-45
2021/12/24 01:02:50;;;;;;;11.37;8.00;;;4.40;99.90;;;;;;5067820;28;20205;-45
2021/12/24 01:05:20;;;;;;;14.27;9.13;;;4.30;99.90;;;;;;5065884;28;20231;-46
2021/12/24 01:07:49;;;;;;;11.10;7.83;;;4.30;99.90;;;;;;5051188;28;20222;-45
2021/12/24 01:10:18;;;;;;;13.90;8.50;;;4.40;99.90;;;;;;5080155;28;20832;-46
2021/12/24 01:12:46;;;;;;;12.60;8.07;;;4.40;99.90;;;;;;5067727;28;20211;-40
2021/12/24 01:15:14;;;;;;;16.13;9.63;;;4.40;99.90;;;;;;5061932;28;20361;-40
2021/12/24 01:17:48;;;;;;;14.77;8.90;;;4.40;99.90;;;;;;5073872;28;20315;-40
2021/12/24 01:20:25;;;;;;;14.80;8.73;;;4.40;99.90;;;;;;5071287;27;20207;-41
2021/12/24 01:25:47;;;;;;;14.53;8.77;;;4.40;99.90;;;;;;5066120;28;20302;-46
2021/12/24 01:39:17;;;;;;;18.70;8.97;;;4.40;99.90;;;;;;5053611;28;20312;-40
2021/12/24 01:44:28;;;;;;;16.70;9.47;;;4.50;99.90;;;;;;5068575;28;20272;-40
2021/12/24 01:46:57;;;;;;;16.43;9.30;;;4.50;99.90;;;;;;5064345;28;20278;-40
2021/12/24 01:49:25;;;;;;;16.23;9.30;;;4.40;99.90;;;;;;5077581;28;20202;-40
2021/12/24 01:51:54;;;;;;;14.63;9.20;;;4.50;99.90;;;;;;5066747;28;20207;-40
2021/12/24 01:54:21;;;;;;;14.80;9.80;;;4.50;99.90;;;;;;5061425;28;20214;-40
2021/12/24 01:56:48;;;;;;;12.20;8.33;;;4.60;99.90;;;;;;5082606;28;20200;-40
2021/12/24 01:59:15;;;;;;;15.97;9.87;;;4.60;99.90;;;;;;5064545;28;22002;-40
2021/12/24 02:01:43;;;;;;;15.13;9.80;;;4.60;99.90;;;;;;5078458;28;20684;-40
2021/12/24 02:04:13;;;;;;;17.73;10.37;;;4.60;99.90;;;;;;5060541;28;20321;-40
2021/12/24 02:06:41;;;;;;;16.80;9.87;;;4.60;99.90;;;;;;5073501;28;20212;-40
2021/12/24 02:09:11;;;;;;;14.43;9.07;;;4.70;99.90;;;;;;5050428;28;21513;-40
2021/12/24 02:11:38;;;;;;;15.23;9.30;;;4.60;99.90;;;;;;5091066;28;20195;-41
2021/12/24 02:14:07;;;;;;;17.07;9.00;;;4.60;99.90;;;;;;5071262;28;20917;-40
2021/12/24 02:16:50;;;;;;;15.47;9.50;;;4.60;99.90;;;;;;5085667;28;20987;-40
2021/12/24 02:30:38;;;;;;;20.57;10.13;;;4.80;99.90;;;;;;5071098;28;20224;-40
2021/12/24 02:33:06;;;;;;;16.43;10.13;;;4.80;99.90;;;;;;5080529;28;20849;-40
2021/12/24 02:35:33;;;;;;;15.17;10.03;;;4.70;99.90;;;;;;5059310;28;20227;-40
2021/12/24 02:38:03;;;;;;;13.30;8.83;;;4.70;99.90;;;;;;5053149;28;20969;-40
2021/12/24 02:40:31;;;;;;;19.70;9.23;;;4.70;99.90;;;;;;5059126;28;20220;-40
2021/12/24 02:42:59;;;;;;;12.50;8.63;;;4.80;99.90;;;;;;5078066;28;20200;-40
2021/12/24 02:45:29;;;;;;;14.73;9.17;;;4.80;99.90;;;;;;5083967;28;21148;-40
2021/12/24 02:48:12;;;;;;;15.30;8.90;;;4.80;99.90;;;;;;5060674;28;20804;-41
2021/12/24 02:56:13;;;;;;;12.17;7.80;;;4.70;99.90;;;;;;5056874;28;20308;-40
2021/12/24 02:58:43;;;;;;;12.50;8.50;;;4.80;99.90;;;;;;5065674;28;20231;-40
2021/12/24 03:01:11;;;;;;;9.47;7.20;;;4.80;99.90;;;;;;5063325;28;20200;-40
2021/12/24 03:03:38;;;;;;;11.33;7.63;;;4.80;99.90;;;;;;5080600;28;20196;-40
2021/12/24 03:06:05;;;;;;;12.87;7.60;;;4.80;99.90;;;;;;5067768;28;20261;-41
2021/12/24 03:08:35;;;;;;;17.93;8.27;;;4.80;99.90;;;;;;5050200;28;20210;-40
2021/12/24 03:11:02;;;;;;;11.70;7.73;;;4.80;99.90;;;;;;5073130;28;20211;-41
2021/12/24 03:13:30;;;;;;;12.73;8.10;;;4.80;99.90;;;;;;5060038;28;20207;-40
2021/12/24 03:15:59;;;;;;;10.87;7.67;;;4.80;99.90;;;;;;5070806;28;20243;-40
2021/12/24 03:18:28;;;;;;;15.07;8.67;;;4.80;99.90;;;;;;5061570;28;20203;-42
2021/12/24 03:21:03;;;;;;;12.07;7.93;;;4.80;99.90;;;;;;5063375;28;20212;-41
2021/12/24 03:23:37;;;;;;;11.23;7.67;;;4.80;99.90;;;;;;5051035;28;20254;-41
2021/12/24 03:26:07;;;;;;;14.60;8.17;;;4.70;99.90;;;;;;5081766;27;20245;-41
2021/12/24 03:28:34;;;;;;;9.10;6.97;;;4.80;99.90;;;;;;5055225;27;20705;-41
2021/12/24 03:31:02;;;;;;;13.47;7.43;;;4.80;99.90;;;;;;5065196;28;20219;-41
2021/12/24 03:33:29;;;;;;;11.67;7.23;;;4.80;99.90;;;;;;5056754;28;20248;-41
2021/12/24 03:35:56;;;;;;;9.17;6.83;;;4.80;99.90;;;;;;5066948;28;20645;-42
2021/12/24 03:38:24;;;;;;;8.97;6.93;;;4.80;99.90;;;;;;5059178;28;20219;-41
2021/12/24 03:40:50;;;;;;;9.93;6.80;;;4.80;99.90;;;;;;5064069;28;20861;-42
2021/12/24 03:43:19;;;;;;;8.70;6.00;;;4.90;99.90;;;;;;5041844;28;20216;-42
2021/12/24 03:45:56;;;;;;;8.03;5.83;;;4.90;99.90;;;;;;5052528;28;21285;-41
2021/12/24 03:48:27;;;;;;;9.37;5.67;;;4.90;99.90;;;;;;5063896;28;20783;-41
2021/12/24 03:51:01;;;;;;;8.37;5.70;;;4.90;99.90;;;;;;5059439;28;20218;-42
2021/12/24 03:56:15;;;;;;;8.03;5.90;;;4.90;99.90;;;;;;5076334;28;20237;-41
2021/12/24 03:58:43;;;;;;;7.87;5.50;;;4.90;99.90;;;;;;5051933;28;21345;-41
2021/12/24 04:01:11;;;;;;;8.43;5.80;;;4.80;99.90;;;;;;5073020;28;20203;-42
2021/12/24 04:03:38;;;;;;;8.93;5.77;;;4.80;99.90;;;;;;5083969;27;20219;-41
2021/12/24 04:06:05;;;;;;;7.83;4.97;;;4.80;99.90;;;;;;5065723;28;20784;-42
2021/12/24 04:08:32;;;;;;;7.37;5.00;;;4.80;99.90;;;;;;5051804;28;20209;-42
2021/12/24 04:10:59;;;;;;;5.50;4.80;;;4.80;99.90;;;;;;5078825;28;20219;-38
2021/12/24 04:13:26;;;;;;;6.80;4.83;;;4.80;99.90;;;;;;5052416;28;20719;-38
2021/12/24 04:15:54;;;;;;;7.93;5.00;;;4.80;99.90;;;;;;5070518;28;20364;-38
2021/12/24 04:18:34;;;;;;;6.87;4.60;;;4.80;99.90;;;;;;5076911;28;20234;-38
2021/12/24 04:26:33;;;;;;;9.30;4.63;;;4.80;99.90;;;;;;5074416;28;20202;-38
2021/12/24 04:29:00;;;;;;;6.20;4.73;;;4.80;99.90;;;;;;5057364;28;20223;-38
2021/12/24 04:31:38;;;;;;;7.77;4.77;;;4.90;99.90;;;;;;5063362;28;20631;-38
2021/12/24 04:34:05;;;;;;;5.80;4.57;;;4.90;99.90;;;;;;5081073;28;20196;-38
2021/12/24 04:36:47;;;;;;;5.70;4.00;;;4.90;99.90;;;;;;5056899;28;20269;-39
2021/12/24 04:39:38;;;;;;;5.23;4.03;;;4.80;99.90;;;;;;5060151;28;20242;-38
2021/12/24 04:53:21;;;;;;;4.93;4.20;;;4.80;99.90;;;;;;5057005;28;20231;-38
2021/12/24 05:01:31;;;;;;;5.53;3.30;;;4.70;99.90;;;;;;5046664;28;20711;-38
2021/12/24 05:04:02;;;;;;;4.07;3.57;;;4.80;99.90;;;;;;5077160;28;20213;-38
2021/12/24 05:06:35;;;;;;;4.80;3.67;;;4.80;99.90;;;;;;5064784;28;20227;-38
2021/12/24 05:09:07;;;;;;;6.00;3.90;;;4.80;99.90;;;;;;5053539;28;20227;-41
2021/12/24 05:11:35;;;;;;;4.37;3.43;;;4.80;99.90;;;;;;5060560;28;20264;-38
2021/12/24 05:14:02;;;;;;;4.23;3.37;;;4.80;99.90;;;;;;5076565;28;20690;-38
2021/12/24 05:16:41;;;;;;;4.03;3.43;;;4.80;99.90;;;;;;5046299;28;21026;-38
2021/12/24 05:21:54;;;;;;;6.03;3.90;;;4.80;99.90;;;;;;5076508;27;20222;-39
2021/12/24 05:24:23;;;;;;;4.93;3.30;;;4.80;99.90;;;;;;5049767;28;20234;-38
2021/12/24 05:26:53;;;;;;;4.33;3.60;;;4.80;99.90;;;;;;5056075;28;20208;-38
2021/12/24 05:29:20;;;;;;;4.93;3.80;;;4.80;99.90;;;;;;5064019;28;20210;-38
2021/12/24 05:31:48;;;;;;;4.20;3.50;;;4.80;99.90;;;;;;5016520;28;20227;-39
2021/12/24 05:34:17;;;;;;;4.07;3.53;;;4.80;99.90;;;;;;5066755;28;20955;-38
2021/12/24 05:36:44;;;;;;;4.57;3.60;;;4.80;99.90;;;;;;5050426;28;20203;-38
2021/12/24 05:39:11;;;;;;;4.13;3.00;;;4.80;99.90;;;;;;5066845;28;20368;-38
2021/12/24 05:41:38;;;;;;;3.63;3.10;;;4.80;99.90;;;;;;5048642;28;20212;-39
2021/12/24 05:44:08;;;;;;;4.00;2.90;;;4.80;99.90;;;;;;5070014;28;20203;-38
2021/12/24 05:46:35;;;;;;;4.10;2.80;;;4.90;99.90;;;;;;5044622;28;20268;-39
2021/12/24 05:49:03;;;;;;;3.17;2.80;;;4.90;99.90;;;;;;5049760;28;20204;-39
2021/12/24 05:51:33;;;;;;;3.40;2.87;;;4.90;99.90;;;;;;5062785;28;20517;-39
2021/12/24 05:54:00;;;;;;;5.73;2.90;;;4.90;99.90;;;;;;5037109;28;20212;-39
2021/12/24 05:56:27;;;;;;;3.17;2.73;;;4.90;99.90;;;;;;5057734;28;20877;-39
2021/12/24 05:58:54;;;;;;;5.07;3.20;;;4.90;99.90;;;;;;5053246;28;20231;-38
2021/12/24 06:01:23;;;;;;;3.90;2.87;;;4.90;99.90;;;;;;5050271;28;20246;-39
2021/12/24 06:03:51;;;;;;;3.83;2.90;;;5.00;99.90;;;;;;5060960;28;20215;-39
2021/12/24 06:06:18;;;;;;;3.20;2.60;;;5.00;99.90;;;;;;5054123;28;20236;-39
2021/12/24 06:08:46;;;;;;;4.07;2.80;;;5.20;99.90;;;;;;5052281;28;20731;-39
2021/12/24 06:11:13;;;;;;;3.63;3.00;;;5.20;99.90;;;;;;5065056;28;21204;-39
2021/12/24 06:13:41;;;;;;;3.37;2.87;;;5.20;99.90;;;;;;5034376;28;20222;-39
2021/12/24 06:16:09;;;;;;;3.20;2.87;;;5.40;99.90;;;;;;5051615;28;20235;-39
2021/12/24 06:18:39;;;;;;;3.47;2.93;;;5.30;99.90;;;;;;5031877;28;20791;-39
2021/12/24 06:21:06;;;;;;;3.70;3.10;;;5.30;99.90;;;;;;5071814;28;20220;-39
2021/12/24 06:23:34;;;;;;;3.40;2.47;;;5.30;99.90;;;;;;5045029;28;20192;-39
2021/12/24 06:26:03;;;;;;;3.50;2.70;;;5.30;99.90;;;;;;5044164;28;20687;-39
2021/12/24 06:28:30;;;;;;;3.10;2.80;;;5.40;99.90;;;;;;5023859;28;21077;-39
2021/12/24 06:30:57;;;;;;;3.93;3.23;;;5.40;99.90;;;;;;5062445;28;20211;-39
2021/12/24 06:33:24;;;;;;;2.90;2.33;;;5.40;99.90;;;;;;5037616;28;20210;-39
2021/12/24 06:35:54;;;;;;;3.57;3.10;;;5.50;99.90;;;;;;5060824;28;20215;-39
2021/12/24 06:38:21;;;;;;;3.20;2.40;;;5.50;99.90;;;;;;5054417;28;20580;-39
2021/12/24 06:40:48;;;;;;;2.90;2.60;;;5.50;99.90;;;;;;5042619;28;20227;-39
2021/12/24 06:43:16;;;;;;;4.03;2.90;;;5.40;99.90;;;;;;5048501;28;20207;-39
2021/12/24 06:45:44;;;;;;;5.57;3.97;;;5.30;99.90;;;;;;5042653;28;20226;-39
2021/12/24 06:48:11;;;;;;;7.93;4.33;;;5.20;99.90;;;;;;5051341;28;20901;-39
2021/12/24 06:50:38;;;;;;;7.60;5.13;;;5.00;99.90;;;;;;5062422;28;20192;-39
2021/12/24 06:53:05;;;;;;;8.57;5.90;;;4.90;99.90;;;;;;5071525;28;20865;-39
2021/12/24 06:55:32;;;;;;;10.43;6.53;;;4.70;99.90;;;;;;5030325;28;20224;-39
2021/12/24 06:57:59;;;;;;;9.80;6.00;;;4.60;99.90;;;;;;5057541;28;20660;-38
2021/12/24 07:00:27;;;;;;;9.67;6.20;;;4.50;99.90;;;;;;5058984;28;20225;-39
2021/12/24 07:02:54;;;;;;;11.17;6.23;;;4.40;99.90;;;;;;5043856;28;20734;-39
2021/12/24 07:05:21;;;;;;;12.03;6.03;;;4.40;99.90;;;;;;5043064;28;20235;-39
2021/12/24 07:07:48;;;;;;;9.90;6.37;;;4.30;99.90;;;;;;5063604;28;20300;-39
2021/12/24 07:10:15;;;;;;;10.67;6.87;;;4.30;99.90;;;;;;5055176;28;20208;-38
2021/12/24 07:12:43;;;;;;;10.50;6.37;;;4.30;99.90;;;;;;5056164;28;20215;-39
2021/12/24 07:15:10;;;;;;;10.37;6.60;;;4.30;99.90;;;;;;5043439;28;20231;-38
2021/12/24 07:17:38;;;;;;;10.80;6.83;;;4.30;99.90;;;;;;5043239;28;20199;-38
2021/12/24 07:20:06;;;;;;;12.87;6.80;;;4.20;99.90;;;;;;5040889;28;20225;-38
2021/12/24 07:22:33;;;;;;;12.10;7.73;;;4.30;99.90;;;;;;5071788;28;20206;-39
2021/12/24 07:25:00;;;;;;;11.93;7.00;;;4.30;99.90;;;;;;5050765;28;20235;-38
2021/12/24 07:27:27;;;;;;;10.00;6.70;;;4.20;99.90;;;;;;5053953;28;20973;-39
2021/12/24 07:29:54;;;;;;;12.37;7.00;;;4.20;99.90;;;;;;5043881;28;20211;-39
2021/12/24 07:32:21;;;;;;;10.63;6.97;;;4.20;99.90;;;;;;5051597;28;20211;-39
2021/12/24 07:34:49;;;;;;;15.03;7.20;;;4.20;99.90;;;;;;5045303;28;20230;-39
2021/12/24 07:37:16;;;;;;;12.83;6.47;;;4.10;99.90;;;;;;5061739;28;20208;-40
2021/12/24 07:39:43;;;;;;;11.47;7.23;;;4.10;99.90;;;;;;5068813;28;20233;-39
2021/12/24 07:42:10;;;;;;;11.53;6.83;;;4.10;99.90;;;;;;5047685;28;20207;-39
2021/12/24 07:44:37;;;;;;;11.97;7.03;;;4.10;99.90;;;;;;5068877;28;20228;-38
2021/12/24 07:47:14;;;;;;;12.73;6.87;;;4.10;99.90;;;;;;5066866;28;20983;-39
2021/12/24 07:49:43;;;;;;;12.83;7.53;;;4.10;99.90;;;;;;5062466;28;20621;-38
2021/12/24 07:52:13;;;;;;;13.33;7.03;;;4.00;99.90;;;;;;5067174;28;20655;-38
2021/12/24 07:54:43;;;;;;;12.10;6.60;;;4.00;99.90;;;;;;5072367;28;20231;-39
2021/12/24 07:57:12;;;;;;;12.20;7.20;;;4.00;99.90;;;;;;5044451;28;20915;-39
2021/12/24 07:59:40;;;;;;;13.23;7.33;;;4.00;99.90;;;;;;5070018;28;20211;-38
2021/12/24 08:02:10;;;;;;;10.67;6.70;;;4.00;99.90;;;;;;5041853;28;20214;-38
2021/12/24 08:04:39;;;;;;;17.23;7.77;;;3.90;99.90;;;;;;5046757;28;20220;-42
2021/12/24 08:07:06;;;;;;;11.63;7.00;;;3.90;99.90;;;;;;5064665;28;20597;-47
2021/12/24 08:09:37;;;;;;;13.20;7.30;;;3.90;99.90;;;;;;5076160;28;20218;-47
2021/12/24 08:12:05;;;;;;;11.10;7.70;;;3.90;99.90;;;;;;5060078;28;21473;-41
2021/12/24 08:14:32;;;;;;;32.07;14.47;;;3.90;99.90;;;;;;5062923;28;20276;-41
2021/12/24 08:16:59;;;;;;;19.93;9.80;;;3.90;99.90;;;;;;5058499;28;20207;-39
2021/12/24 08:19:26;;;;;;;13.47;7.30;;;3.80;99.90;;;;;;5060563;28;20208;-38
2021/12/24 08:21:53;;;;;;;11.70;7.37;;;3.80;99.90;;;;;;5044758;28;21181;-41
2021/12/24 08:24:20;;;;;;;37.77;21.43;;;3.80;99.90;;;;;;5059040;28;21107;-41
2021/12/24 08:26:48;;;;;;;19.70;12.07;;;3.70;99.90;;;;;;5083372;28;20223;-41
2021/12/24 08:29:15;;;;;;;22.53;14.23;;;3.60;99.90;;;;;;5054696;28;20218;-41
2021/12/24 08:31:42;;;;;;;11.37;6.63;;;3.70;99.90;;;;;;5065477;28;20546;-41
2021/12/24 08:34:10;;;;;;;10.73;7.17;;;3.70;99.90;;;;;;5050273;28;20207;-41
2021/12/24 08:36:37;;;;;;;12.10;5.67;;;3.70;99.90;;;;;;5036108;28;20267;-41
2021/12/24 08:39:05;;;;;;;12.27;6.60;;;3.70;99.90;;;;;;5055141;28;20219;-41
2021/12/24 08:41:32;;;;;;;8.10;5.00;;;3.60;99.90;;;;;;5070069;28;20231;-42
2021/12/24 08:44:00;;;;;;;8.97;6.07;;;3.60;99.90;;;;;;5061453;28;20207;-41
2021/12/24 08:46:27;;;;;;;8.17;5.60;;;3.60;99.90;;;;;;5040277;28;20246;-42
2021/12/24 08:48:54;;;;;;;25.93;13.93;;;3.60;99.90;;;;;;5059575;28;22179;-42
2021/12/24 08:51:21;;;;;;;11.47;6.37;;;3.60;99.90;;;;;;5046980;28;20212;-42
2021/12/24 08:53:48;;;;;;;15.23;9.80;;;3.60;99.90;;;;;;5043920;28;20216;-38
2021/12/24 08:56:15;;;;;;;18.13;10.40;;;3.60;99.90;;;;;;5065520;28;20234;-39
2021/12/24 08:58:42;;;;;;;9.43;5.33;;;3.60;99.90;;;;;;5056564;28;20203;-38
2021/12/24 09:01:10;;;;;;;7.17;4.57;;;3.60;99.90;;;;;;5058444;28;20921;-38
2021/12/24 09:03:37;;;;;;;7.17;4.70;;;3.70;99.90;;;;;;5068353;28;20246;-38
2021/12/24 09:06:04;;;;;;;7.67;5.63;;;3.70;99.90;;;;;;5059285;28;20229;-38
2021/12/24 09:08:31;;;;;;;9.13;5.90;;;3.60;99.90;;;;;;5036631;27;20219;-38
2021/12/24 09:10:58;;;;;;;7.43;5.07;;;3.60;99.90;;;;;;5066576;28;20681;-38
2021/12/24 09:13:25;;;;;;;7.27;5.20;;;3.60;99.90;;;;;;5054353;28;20203;-38
2021/12/24 09:15:53;;;;;;;8.07;5.63;;;3.60;99.90;;;;;;5053183;28;20226;-37
2021/12/24 09:18:22;;;;;;;9.73;6.93;;;3.50;99.90;;;;;;5084479;28;20738;-37
2021/12/24 09:20:49;;;;;;;9.33;6.63;;;3.50;99.90;;;;;;5057009;28;21257;-37
2021/12/24 09:23:18;;;;;;;7.83;5.43;;;3.50;99.90;;;;;;5031344;28;20217;-37
2021/12/24 09:25:45;;;;;;;6.47;5.03;;;3.50;99.90;;;;;;5070325;28;20230;-38
2021/12/24 09:28:12;;;;;;;8.10;5.60;;;3.40;99.90;;;;;;5067126;28;20205;-38
2021/12/24 09:30:39;;;;;;;7.47;5.77;;;3.40;99.90;;;;;;5046430;28;20600;-38
2021/12/24 09:33:06;;;;;;;8.50;5.53;;;3.30;99.90;;;;;;5069363;28;20201;-37
2021/12/24 09:35:35;;;;;;;6.93;4.70;;;3.30;99.90;;;;;;5071399;28;20238;-38
2021/12/24 09:38:03;;;;;;;7.03;4.60;;;3.30;99.90;;;;;;5048010;28;20219;-37
2021/12/24 09:40:33;;;;;;;5.57;4.33;;;3.30;99.90;;;;;;5078235;28;20215;-38
2021/12/24 09:43:00;;;;;;;5.80;3.87;;;3.30;99.90;;;;;;5055708;28;20214;-37
2021/12/24 09:45:27;;;;;;;5.23;3.83;;;3.30;99.90;;;;;;5059028;28;20272;-38
2021/12/24 09:47:54;;;;;;;5.10;3.87;;;3.30;99.90;;;;;;5058297;27;20226;-37
2021/12/24 09:50:24;;;;;;;5.73;4.00;;;3.30;99.90;;;;;;5076640;28;20198;-37
2021/12/24 09:52:53;;;;;;;5.43;4.00;;;3.30;99.90;;;;;;5051297;27;20211;-38
2021/12/24 09:55:22;;;;;;;5.30;3.60;;;3.30;99.90;;;;;;5058430;28;20227;-38
2021/12/24 09:57:49;;;;;;;7.43;3.57;;;3.30;99.90;;;;;;5059138;28;20203;-37
2021/12/24 10:00:20;;;;;;;6.47;4.07;;;3.30;99.90;;;;;;5069544;28;20206;-38
2021/12/24 10:02:50;;;;;;;6.87;4.27;;;3.30;99.90;;;;;;5070271;28;20229;-41
2021/12/24 10:05:26;;;;;;;6.27;4.57;;;3.20;99.90;;;;;;5058116;28;20234;-41
2021/12/24 10:07:59;;;;;;;5.80;4.20;;;3.20;99.90;;;;;;5047253;28;20211;-41
2021/12/24 10:10:29;;;;;;;6.70;4.40;;;3.30;99.90;;;;;;5056402;28;20202;-41
2021/12/24 10:12:58;;;;;;;6.00;4.23;;;3.20;99.90;;;;;;5071926;28;20341;-40
2021/12/24 10:15:25;;;;;;;6.33;4.07;;;3.20;99.90;;;;;;5057871;28;20240;-40
2021/12/24 10:17:52;;;;;;;5.33;4.07;;;3.20;99.90;;;;;;5069273;27;20588;-40
2021/12/24 10:20:20;;;;;;;8.27;4.27;;;3.20;99.90;;;;;;5062494;28;20198;-41
2021/12/24 10:22:50;;;;;;;6.87;4.57;;;3.10;99.90;;;;;;5036857;28;20353;-41
2021/12/24 10:25:25;;;;;;;4.93;3.93;;;3.20;99.90;;;;;;5049829;28;20833;-41
2021/12/24 10:27:52;;;;;;;8.10;4.90;;;3.10;99.90;;;;;;5064173;28;20203;-41
2021/12/24 10:30:22;;;;;;;5.87;4.53;;;3.10;99.90;;;;;;5076202;28;20215;-41
2021/12/24 10:32:50;;;;;;;21.27;11.33;;;3.10;99.90;;;;;;5048260;28;20210;-41
2021/12/24 10:35:21;;;;;;;20.67;10.17;;;3.10;99.90;;;;;;5059507;28;20329;-41
2021/12/24 10:38:13;;;;;;;9.40;6.53;;;3.10;99.90;;;;;;5035519;28;21630;-41
2021/12/24 10:40:50;;;;;;;24.33;13.40;;;3.20;99.90;;;;;;5043008;28;20924;-39
2021/12/24 10:43:25;;;;;;;13.07;9.13;;;3.10;99.90;;;;;;5051535;28;20206;-38
2021/12/24 10:46:09;;;;;;;12.57;9.03;;;3.20;99.90;;;;;;5063642;28;20231;-38
2021/12/24 10:48:37;;;;;;;11.07;7.30;;;3.10;99.90;;;;;;5061019;28;20206;-38
2021/12/24 10:51:08;;;;;;;14.43;9.03;;;3.10;99.90;;;;;;5064732;28;20882;-38
2021/12/24 10:54:03;;;;;;;13.90;8.20;;;3.20;99.90;;;;;;5053231;28;20205;-38
2021/12/24 10:56:30;;;;;;;10.20;7.10;;;3.20;99.90;;;;;;5063252;28;20232;-38
2021/12/24 10:58:57;;;;;;;11.53;8.83;;;3.30;99.90;;;;;;5051404;28;20232;-41
2021/12/24 11:01:24;;;;;;;7.80;5.97;;;3.20;99.90;;;;;;5047748;28;20235;-41
2021/12/24 11:03:52;;;;;;;8.80;6.13;;;3.20;99.90;;;;;;5052194;27;20210;-47
2021/12/24 11:06:21;;;;;;;8.47;5.87;;;3.20;99.90;;;;;;5058738;28;20234;-47
2021/12/24 11:08:55;;;;;;;10.47;6.53;;;3.20;99.90;;;;;;5068855;28;20212;-47
2021/12/24 11:11:23;;;;;;;7.50;5.43;;;3.20;99.90;;;;;;5056836;28;20206;-38
2021/12/24 11:13:52;;;;;;;8.67;5.70;;;3.20;99.90;;;;;;5053171;28;20242;-41
2021/12/24 11:16:21;;;;;;;9.60;5.67;;;3.20;99.90;;;;;;5050817;28;20235;-42
2021/12/24 11:18:56;;;;;;;13.70;6.40;;;3.20;99.90;;;;;;5042849;28;20211;-41
2021/12/24 11:21:25;;;;;;;8.57;6.00;;;3.20;99.90;;;;;;5064654;28;20237;-39
2021/12/24 11:23:52;;;;;;;9.17;6.23;;;3.20;99.90;;;;;;5059477;28;20222;-39
2021/12/24 11:26:21;;;;;;;10.40;6.30;;;3.20;99.90;;;;;;5056462;28;20223;-39
2021/12/24 11:28:50;;;;;;;8.30;5.40;;;3.20;99.90;;;;;;5071554;28;20683;-41
2021/12/24 11:31:19;;;;;;;8.77;6.03;;;3.30;99.90;;;;;;5050328;28;20199;-47
2021/12/24 11:33:47;;;;;;;10.17;6.27;;;3.30;99.90;;;;;;5062029;28;20583;-42
2021/12/24 11:36:17;;;;;;;7.97;6.30;;;3.30;99.90;;;;;;5034350;28;20237;-42
2021/12/24 11:38:47;;;;;;;7.47;5.50;;;3.30;99.90;;;;;;5069520;28;20303;-42
2021/12/24 11:41:17;;;;;;;7.67;5.03;;;3.40;99.90;;;;;;5047531;28;20342;-39
2021/12/24 11:43:45;;;;;;;7.47;5.67;;;3.40;99.90;;;;;;5060826;28;20208;-42
2021/12/24 11:46:18;;;;;;;8.03;5.60;;;3.40;99.90;;;;;;5063658;28;20238;-41
2021/12/24 11:48:47;;;;;;;8.70;5.67;;;3.40;99.90;;;;;;5044414;28;20690;-42
2021/12/24 11:51:17;;;;;;;8.60;5.77;;;3.40;99.90;;;;;;5044763;28;20234;-42
2021/12/24 11:53:45;;;;;;;7.87;5.83;;;3.40;99.90;;;;;;5069641;28;20299;-47
2021/12/24 11:56:15;;;;;;;9.37;6.17;;;3.40;99.90;;;;;;5040883;28;20234;-39
2021/12/24 11:58:45;;;;;;;9.10;5.60;;;3.50;99.90;;;;;;5064521;28;20210;-42
2021/12/24 12:01:14;;;;;;;9.27;6.13;;;3.50;99.90;;;;;;5060271;28;20211;-39
2021/12/24 12:03:45;;;;;;;8.33;5.63;;;3.50;99.90;;;;;;5063678;28;20243;-47
2021/12/24 12:06:33;;;;;;;8.37;5.43;;;3.50;99.90;;;;;;5047840;28;23803;-42
2021/12/24 12:09:03;;;;;;;8.20;5.37;;;3.50;99.90;;;;;;5073850;28;20243;-42
2021/12/24 12:11:31;;;;;;;7.43;5.27;;;3.50;99.90;;;;;;5041619;28;20212;-39
2021/12/24 12:14:01;;;;;;;7.17;5.30;;;3.60;99.90;;;;;;5050051;28;20224;-48
2021/12/24 12:16:47;;;;;;;8.70;5.53;;;3.60;99.90;;;;;;5062315;28;20239;-42
2021/12/24 12:19:24;;;;;;;8.97;5.17;;;3.60;99.90;;;;;;5048724;28;20218;-41
2021/12/24 12:22:19;;;;;;;14.23;11.47;;;3.60;99.90;;;;;;5052737;28;20310;-42
2021/12/24 12:27:36;;;;;;;7.27;5.30;;;3.70;99.90;;;;;;5057386;28;20203;-47
2021/12/24 12:30:25;;;;;;;8.57;6.47;;;3.70;99.90;;;;;;5051767;28;20200;-38
2021/12/24 12:32:54;;;;;;;8.10;5.80;;;3.70;99.90;;;;;;5057386;28;20212;-41
2021/12/24 12:35:34;;;;;;;6.93;5.10;;;3.60;99.90;;;;;;5046591;28;20307;-47
2021/12/24 12:38:01;;;;;;;7.80;5.33;;;3.60;99.90;;;;;;5059674;28;20204;-42
2021/12/24 12:40:32;;;;;;;8.47;5.83;;;3.60;99.90;;;;;;5056925;28;20206;-41
2021/12/24 12:43:13;;;;;;;10.10;6.77;;;3.60;99.90;;;;;;5061476;28;20663;-38
2021/12/24 12:46:03;;;;;;;12.13;9.83;;;3.60;99.90;;;;;;5030385;28;20231;-47
2021/12/24 12:48:50;;;;;;;9.67;8.43;;;3.60;99.90;;;;;;5044421;28;20260;-39
2021/12/24 12:51:21;;;;;;;9.40;6.47;;;3.70;99.90;;;;;;5032950;28;20207;-39
2021/12/24 12:53:50;;;;;;;12.97;6.57;;;3.70;99.90;;;;;;5035123;28;20212;-38
2021/12/24 12:56:27;;;;;;;7.20;5.60;;;3.70;99.90;;;;;;5053987;28;20215;-47
2021/12/24 12:58:58;;;;;;;7.27;5.77;;;3.70;99.90;;;;;;5042437;28;20798;-46
2021/12/24 13:01:27;;;;;;;6.93;5.60;;;3.70;99.90;;;;;;5061703;28;20212;-47
2021/12/24 13:04:12;;;;;;;8.77;5.83;;;3.70;99.90;;;;;;5061546;28;20207;-46
2021/12/24 13:06:57;;;;;;;7.90;4.93;;;3.70;99.90;;;;;;5047842;28;20876;-47
2021/12/24 13:09:29;;;;;;;8.27;6.30;;;3.70;99.90;;;;;;5060105;28;20506;-42
2021/12/24 13:11:56;;;;;;;12.10;9.57;;;3.70;99.90;;;;;;5061125;28;20214;-42
2021/12/24 13:14:25;;;;;;;8.93;6.57;;;3.70;99.90;;;;;;5050025;28;20222;-42
2021/12/24 13:17:06;;;;;;;9.83;6.73;;;3.70;99.90;;;;;;5072333;28;20204;-39
2021/12/24 13:22:31;;;;;;;6.33;4.63;;;3.70;99.90;;;;;;5035508;28;23968;-38
2021/12/24 13:25:00;;;;;;;5.70;4.40;;;3.70;99.90;;;;;;5065104;28;20855;-39
2021/12/24 13:27:29;;;;;;;6.73;4.43;;;3.70;99.90;;;;;;5055911;28;20283;-41
2021/12/24 13:30:15;;;;;;;6.30;4.80;;;3.80;99.90;;;;;;5054629;28;20356;-41
2021/12/24 13:32:43;;;;;;;5.63;4.47;;;3.80;99.90;;;;;;5074593;28;20211;-41
2021/12/24 13:35:11;;;;;;;6.83;4.70;;;3.80;99.90;;;;;;5053998;28;20231;-41
2021/12/24 13:37:45;;;;;;;6.43;4.93;;;3.80;99.90;;;;;;5056442;28;20219;-41
2021/12/24 13:40:14;;;;;;;6.70;4.80;;;3.80;99.90;;;;;;5031218;28;20258;-41
2021/12/24 13:42:47;;;;;;;8.20;5.20;;;3.80;99.90;;;;;;5054037;28;20235;-47
2021/12/24 13:45:14;;;;;;;6.50;4.50;;;3.80;99.90;;;;;;5014265;28;20224;-47
2021/12/24 13:47:57;;;;;;;8.10;4.53;;;3.80;99.90;;;;;;5060027;28;20209;-47
2021/12/24 13:55:56;;;;;;;9.33;6.00;;;3.80;99.90;;;;;;5054921;28;20243;-46
2021/12/24 13:58:23;;;;;;;11.93;7.50;;;3.80;99.90;;;;;;5054958;27;20203;-46
2021/12/24 14:00:52;;;;;;;10.23;6.33;;;3.80;99.90;;;;;;5073417;28;20203;-46
2021/12/24 14:03:24;;;;;;;7.17;5.67;;;3.80;99.90;;;;;;5057177;28;20215;-47
2021/12/24 14:05:52;;;;;;;8.13;5.50;;;3.80;99.90;;;;;;5073475;28;20219;-46
2021/12/24 14:08:23;;;;;;;7.10;5.13;;;3.80;99.90;;;;;;5053817;28;20280;-46
2021/12/24 14:11:02;;;;;;;6.50;4.70;;;3.80;99.90;;;;;;5041018;28;20208;-46
2021/12/24 14:13:33;;;;;;;6.63;4.50;;;3.80;99.90;;;;;;5029648;28;20213;-47
2021/12/24 14:16:09;;;;;;;8.27;5.23;;;3.80;99.90;;;;;;5056588;28;20219;-45
2021/12/24 14:18:48;;;;;;;8.60;4.93;;;3.80;99.90;;;;;;5040087;27;24334;-47
2021/12/24 14:24:18;;;;;;;6.70;4.27;;;3.80;99.90;;;;;;5052192;28;20256;-47
2021/12/24 14:26:47;;;;;;;5.93;4.23;;;3.70;99.90;;;;;;5039626;28;20203;-47
2021/12/24 14:29:23;;;;;;;10.27;4.57;;;3.70;99.90;;;;;;5028792;28;20215;-47
2021/12/24 14:31:53;;;;;;;5.50;3.50;;;3.70;99.90;;;;;;5051522;28;20207;-47
2021/12/24 14:34:45;;;;;;;7.03;5.27;;;3.80;99.90;;;;;;5049406;28;20208;-46
2021/12/24 14:37:19;;;;;;;7.40;4.80;;;3.90;99.90;;;;;;5040509;28;20208;-46